Time;durP1;ratioP1;P1;durP2;ratioP2;P2;SDS_P1;SDS_P2;PMS_P1;PMS_P2;Temp;Humidity;BMP_temperature;BMP_pressure;BME280_temperature;BME280_humidity;BME280_pressure;Samples;Min_cycle;Max_cycle;Signal;HPM_P1;HPM_P2
2022/06/08 00:00:04;;;;;;;4.57;2.40;;;;;;;15.27;100.00;99983.41;4928953;29;20199;-76
2022/06/08 00:02:34;;;;;;;2.70;2.10;;;;;;;15.24;100.00;99986.97;4927025;29;20229;-76
2022/06/08 00:05:00;;;;;;;3.20;2.20;;;;;;;15.20;100.00;99983.59;4929487;29;20190;-75
2022/06/08 00:07:26;;;;;;;1.90;1.77;;;;;;;15.17;100.00;99980.25;4931791;29;20203;-76
2022/06/08 00:09:51;;;;;;;3.03;1.90;;;;;;;15.14;100.00;99980.34;4932317;29;20241;-76
2022/06/08 00:12:17;;;;;;;2.60;2.10;;;;;;;15.12;100.00;99975.19;4930635;29;20206;-76
2022/06/08 00:14:45;;;;;;;3.47;1.77;;;;;;;15.09;100.00;99972.69;4929665;29;20226;-76
2022/06/08 00:17:11;;;;;;;3.10;2.10;;;;;;;15.04;100.00;99970.22;4929447;29;20195;-76
2022/06/08 00:19:36;;;;;;;1.87;1.77;;;;;;;15.02;100.00;99968.59;4928681;29;20229;-76
2022/06/08 00:22:02;;;;;;;1.83;1.63;;;;;;;14.99;100.00;99969.50;4928867;29;20278;-76
2022/06/08 00:24:28;;;;;;;1.90;1.80;;;;;;;14.96;100.00;99972.25;4928606;29;20195;-76
2022/06/08 00:26:53;;;;;;;2.07;1.80;;;;;;;14.93;100.00;99962.75;4914531;29;20232;-76
2022/06/08 00:29:19;;;;;;;2.23;2.00;;;;;;;14.90;100.00;99962.00;4927181;29;20230;-76
2022/06/08 00:31:44;;;;;;;2.40;1.87;;;;;;;14.87;100.00;99951.69;4911978;29;20871;-76
2022/06/08 00:34:10;;;;;;;2.07;1.80;;;;;;;14.84;100.00;99952.63;4928482;29;20212;-76
2022/06/08 00:36:35;;;;;;;1.70;1.60;;;;;;;14.81;100.00;99944.06;4928695;29;20269;-77
2022/06/08 00:39:01;;;;;;;2.67;1.80;;;;;;;14.77;100.00;99938.97;4911405;29;20204;-76
2022/06/08 00:41:37;;;;;;;2.43;2.10;;;;;;;14.74;100.00;99940.81;4927431;29;20216;-76
2022/06/08 00:44:08;;;;;;;2.20;2.00;;;;;;;14.72;100.00;99932.19;4912259;29;20187;-76
2022/06/08 00:46:34;;;;;;;2.17;1.90;;;;;;;14.70;100.00;99942.66;4929378;29;20192;-76
2022/06/08 00:49:08;;;;;;;2.20;1.97;;;;;;;14.68;100.00;99933.19;4913385;29;20718;-75
2022/06/08 00:51:34;;;;;;;2.47;1.53;;;;;;;14.64;100.00;99929.81;4913579;29;20210;-76
2022/06/08 00:54:01;;;;;;;2.40;1.87;;;;;;;14.60;100.00;99931.63;4912512;29;20220;-76
2022/06/08 00:56:34;;;;;;;2.00;1.80;;;;;;;14.58;100.00;99936.06;4929557;29;20199;-76
2022/06/08 00:59:02;;;;;;;2.63;1.80;;;;;;;14.55;100.00;99937.88;4930512;29;20195;-76
2022/06/08 01:01:27;;;;;;;4.90;1.87;;;;;;;14.52;100.00;99931.03;4911928;29;20216;-76
2022/06/08 01:04:17;;;;;;;1.97;1.77;;;;;;;14.49;100.00;99928.50;4912503;29;20192;-75
2022/06/08 01:06:44;;;;;;;1.53;1.43;;;;;;;14.43;100.00;99924.34;4929185;29;20217;-76
2022/06/08 01:09:25;;;;;;;1.77;1.67;;;;;;;14.41;100.00;99922.72;4927755;29;20191;-74
2022/06/08 01:11:51;;;;;;;1.93;1.70;;;;;;;14.36;100.00;99925.47;4928002;29;20207;-76
2022/06/08 01:14:19;;;;;;;2.27;2.07;;;;;;;14.33;100.00;99920.34;4928503;29;20212;-75
2022/06/08 01:17:04;;;;;;;2.80;1.50;;;;;;;14.28;100.00;99917.88;4926398;29;20594;-75
2022/06/08 01:19:33;;;;;;;3.37;2.03;;;;;;;14.23;100.00;99921.50;4911441;29;20208;-75
2022/06/08 01:22:00;;;;;;;2.33;1.97;;;;;;;14.18;100.00;99922.50;4927923;29;20218;-76
2022/06/08 01:24:27;;;;;;;2.13;1.83;;;;;;;14.14;100.00;99918.28;4911710;29;20206;-75
2022/06/08 01:27:01;;;;;;;2.17;2.03;;;;;;;14.11;100.00;99920.97;4928956;29;20223;-75
2022/06/08 01:29:29;;;;;;;1.80;1.70;;;;;;;14.08;100.00;99925.41;4927737;29;20224;-75
2022/06/08 01:32:27;;;;;;;2.20;1.90;;;;;;;14.02;100.00;99922.09;4929301;29;20756;-75
2022/06/08 01:34:55;;;;;;;1.63;1.53;;;;;;;13.98;100.00;99923.09;4912067;29;20248;-75
2022/06/08 01:37:39;;;;;;;1.70;1.60;;;;;;;13.96;100.00;99924.00;4928893;29;20195;-75
2022/06/08 01:40:23;;;;;;;1.67;1.53;;;;;;;13.93;100.00;99916.28;4911978;29;20281;-75
2022/06/08 01:42:52;;;;;;;1.67;1.57;;;;;;;13.91;100.00;99918.94;4910858;29;20192;-75
2022/06/08 01:45:40;;;;;;;2.17;1.97;;;;;;;13.92;100.00;99922.38;4926428;29;20226;-76
2022/06/08 01:48:27;;;;;;;3.20;1.70;;;;;;;13.89;100.00;99912.94;4926639;29;20240;-76
2022/06/08 01:51:04;;;;;;;1.93;1.70;;;;;;;13.86;100.00;99911.28;4927806;29;20328;-77
2022/06/08 01:53:52;;;;;;;1.73;1.63;;;;;;;13.82;100.00;99914.84;4927836;29;20208;-75
2022/06/08 01:57:05;;;;;;;1.97;1.60;;;;;;;13.76;100.00;99922.84;4925403;29;20255;-76
2022/06/08 02:00:05;;;;;;;1.77;1.67;;;;;;;13.70;100.00;99913.44;4880034;29;20233;-76
2022/06/08 02:03:08;;;;;;;1.93;1.83;;;;;;;13.67;100.00;99910.97;4926174;29;20268;-76
2022/06/08 02:05:55;;;;;;;2.00;1.80;;;;;;;13.62;100.00;99906.75;4896217;29;20259;-76
2022/06/08 02:08:23;;;;;;;2.00;1.80;;;;;;;13.60;100.00;99905.97;4925066;29;20235;-76
2022/06/08 02:11:12;;;;;;;2.97;2.07;;;;;;;13.56;100.00;99905.19;4908175;29;20218;-76
2022/06/08 02:14:00;;;;;;;1.70;1.60;;;;;;;13.53;100.00;99895.72;4905459;29;20274;-77
2022/06/08 02:16:41;;;;;;;2.20;1.80;;;;;;;13.47;100.00;99892.44;4929326;29;20730;-75
2022/06/08 02:19:26;;;;;;;2.60;2.00;;;;;;;13.42;100.00;99892.56;4927228;29;20282;-75
2022/06/08 02:22:06;;;;;;;1.77;1.67;;;;;;;13.38;100.00;99888.31;4928354;29;20222;-75
2022/06/08 02:24:38;;;;;;;2.13;2.00;;;;;;;13.36;100.00;99887.50;4927716;29;20183;-75
2022/06/08 02:27:12;;;;;;;1.93;1.77;;;;;;;13.35;100.00;99893.59;4929205;29;20202;-76
2022/06/08 02:29:41;;;;;;;1.90;1.80;;;;;;;13.34;100.00;99887.56;4928248;29;20645;-75
2022/06/08 02:35:02;;;;;;;1.90;1.80;;;;;;;13.37;100.00;99891.81;4927681;29;20194;-76
2022/06/08 02:37:32;;;;;;;2.63;1.67;;;;;;;13.39;100.00;99879.63;4911023;29;20199;-76
2022/06/08 02:40:05;;;;;;;2.30;2.10;;;;;;;13.42;100.00;99879.59;4927564;29;21244;-75
2022/06/08 02:42:37;;;;;;;1.73;1.63;;;;;;;13.40;100.00;99871.81;4926345;29;20238;-76
2022/06/08 02:45:15;;;;;;;2.97;1.80;;;;;;;13.40;100.00;99865.78;4927236;29;20246;-75
2022/06/08 02:47:45;;;;;;;2.27;2.00;;;;;;;13.39;100.00;99871.81;4927740;29;20196;-76
2022/06/08 02:50:14;;;;;;;2.43;1.90;;;;;;;13.37;100.00;99871.88;4924869;29;20605;-76
2022/06/08 02:52:46;;;;;;;2.20;1.97;;;;;;;13.36;100.00;99862.38;4925455;29;20285;-75
2022/06/08 02:55:18;;;;;;;1.60;1.50;;;;;;;13.35;100.00;99867.59;4927276;29;20622;-75
2022/06/08 02:57:57;;;;;;;2.10;1.90;;;;;;;13.33;100.00;99861.59;4926464;29;20191;-77
2022/06/08 03:00:34;;;;;;;2.60;1.87;;;;;;;13.32;100.00;99857.28;4923327;29;20230;-76
2022/06/08 03:03:04;;;;;;;3.53;1.97;;;;;;;13.31;100.00;99859.03;4926091;29;20195;-74
2022/06/08 03:05:33;;;;;;;2.27;1.90;;;;;;;13.29;100.00;99857.38;4928353;29;20238;-75
2022/06/08 03:08:07;;;;;;;2.33;2.13;;;;;;;13.27;100.00;99855.69;4927204;29;20220;-75
2022/06/08 03:10:36;;;;;;;2.00;1.80;;;;;;;13.24;100.00;99855.75;4913976;29;20206;-75
2022/06/08 03:13:16;;;;;;;2.00;1.90;;;;;;;13.23;100.00;99850.63;4931916;29;20205;-75
2022/06/08 03:15:48;;;;;;;1.87;1.73;;;;;;;13.22;100.00;99848.91;4914763;29;20192;-75
2022/06/08 03:18:14;;;;;;;1.80;1.70;;;;;;;13.23;100.00;99850.63;4931625;29;20219;-75
2022/06/08 03:20:39;;;;;;;2.03;1.87;;;;;;;13.23;100.00;99843.66;4916896;29;20644;-76
2022/06/08 03:23:05;;;;;;;2.20;2.00;;;;;;;13.24;100.00;99839.28;4930285;29;20195;-76
2022/06/08 03:25:31;;;;;;;2.50;2.00;;;;;;;13.26;100.00;99837.50;4932091;29;20184;-76
2022/06/08 03:27:57;;;;;;;2.07;1.97;;;;;;;13.27;100.00;99842.69;4930415;29;20189;-75
2022/06/08 03:30:22;;;;;;;2.43;2.23;;;;;;;13.28;100.00;99843.53;4931346;29;20219;-76
2022/06/08 03:32:48;;;;;;;2.53;2.10;;;;;;;13.29;100.00;99847.00;4931297;29;20211;-75
2022/06/08 03:35:13;;;;;;;2.10;1.90;;;;;;;13.30;100.00;99841.75;4932533;29;20248;-76
2022/06/08 03:37:40;;;;;;;2.47;1.97;;;;;;;13.33;100.00;99844.25;4930255;29;20207;-76
2022/06/08 03:40:07;;;;;;;2.97;1.93;;;;;;;13.37;100.00;99850.22;4912549;29;20743;-75
2022/06/08 03:42:32;;;;;;;3.47;2.13;;;;;;;13.40;100.00;99839.78;4920976;29;20200;-75
2022/06/08 03:44:57;;;;;;;2.30;2.10;;;;;;;13.44;100.00;99836.22;4930018;29;20273;-75
2022/06/08 03:47:27;;;;;;;2.63;2.00;;;;;;;13.50;100.00;99842.97;4913117;29;20191;-75
2022/06/08 03:49:57;;;;;;;2.20;2.00;;;;;;;13.60;100.00;99849.59;4929052;29;20189;-76
2022/06/08 03:52:28;;;;;;;1.80;1.70;;;;;;;13.71;100.00;99847.53;4930063;29;20204;-76
2022/06/08 03:54:59;;;;;;;2.47;2.27;;;;;;;14.00;100.00;99848.44;4930612;29;20227;-75
2022/06/08 03:57:25;;;;;;;2.53;2.00;;;;;;;14.54;100.00;99848.50;4932444;29;20213;-75
2022/06/08 03:59:51;;;;;;;2.63;2.10;;;;;;;14.95;100.00;99845.47;4913989;29;20276;-75
2022/06/08 04:02:17;;;;;;;2.17;1.73;;;;;;;15.13;100.00;99849.19;4929899;29;20188;-75
2022/06/08 04:04:43;;;;;;;1.70;1.60;;;;;;;15.07;100.00;99838.97;4928483;29;20188;-75
2022/06/08 04:07:10;;;;;;;2.80;2.00;;;;;;;14.99;100.00;99846.22;4913800;29;20565;-75
2022/06/08 04:09:37;;;;;;;1.80;1.70;;;;;;;14.89;100.00;99843.94;4928877;29;20186;-75
2022/06/08 04:12:03;;;;;;;1.73;1.63;;;;;;;14.81;100.00;99837.28;4914528;29;20202;-75
2022/06/08 04:14:28;;;;;;;1.60;1.50;;;;;;;14.74;100.00;99832.25;4931392;29;20447;-77
2022/06/08 04:16:54;;;;;;;2.47;1.80;;;;;;;14.72;100.00;99831.44;4923401;29;20751;-77
2022/06/08 04:19:19;;;;;;;3.10;2.00;;;;;;;14.69;100.00;99841.97;4930457;29;20205;-76
2022/06/08 04:21:45;;;;;;;1.87;1.77;;;;;;;14.67;100.00;99840.28;4929239;29;20664;-76
2022/06/08 04:24:13;;;;;;;2.50;1.80;;;;;;;14.66;100.00;99829.03;4930980;29;20193;-76
2022/06/08 04:26:39;;;;;;;1.83;1.40;;;;;;;14.70;100.00;99824.59;4930214;29;20196;-76
2022/06/08 04:29:09;;;;;;;1.70;1.60;;;;;;;14.76;100.00;99826.97;4913026;29;20280;-76
2022/06/08 04:31:35;;;;;;;3.50;1.70;;;;;;;14.83;100.00;99825.88;4929815;29;20301;-77
2022/06/08 04:34:03;;;;;;;2.80;1.60;;;;;;;14.94;100.00;99836.78;4929244;29;20226;-76
2022/06/08 04:36:29;;;;;;;2.67;1.70;;;;;;;15.08;100.00;99840.66;4929451;29;20212;-75
2022/06/08 04:38:55;;;;;;;1.93;1.77;;;;;;;15.43;100.00;99845.56;4912046;29;20207;-75
2022/06/08 04:41:22;;;;;;;2.17;1.70;;;;;;;16.02;100.00;99844.25;4926810;29;20249;-76
2022/06/08 04:43:48;;;;;;;1.93;1.70;;;;;;;16.65;100.00;99840.88;4928259;29;20211;-76
2022/06/08 04:46:16;;;;;;;2.47;1.67;;;;;;;17.17;100.00;99839.59;4908833;29;20224;-77
2022/06/08 04:48:43;;;;;;;1.60;1.50;;;;;;;17.71;100.00;99828.50;4927692;29;20199;-76
2022/06/08 04:51:10;;;;;;;1.90;1.60;;;;;;;18.36;100.00;99828.94;4927140;29;20608;-77
2022/06/08 04:53:37;;;;;;;1.60;1.50;;;;;;;18.89;98.60;99835.06;4909472;29;20219;-76
2022/06/08 04:56:03;;;;;;;1.83;1.60;;;;;;;19.36;97.04;99832.69;4911231;29;20271;-76
2022/06/08 04:58:28;;;;;;;4.07;1.60;;;;;;;19.77;94.36;99826.97;4929218;29;20283;-76
2022/06/08 05:00:54;;;;;;;2.10;1.53;;;;;;;19.72;93.83;99826.41;4929304;29;20302;-76
2022/06/08 05:03:19;;;;;;;6.47;1.90;;;;;;;19.68;93.76;99824.00;4929314;29;20255;-76
2022/06/08 05:05:45;;;;;;;3.37;1.70;;;;;;;20.27;92.28;99821.66;4925954;29;20794;-76
2022/06/08 05:08:11;;;;;;;2.60;1.80;;;;;;;21.57;89.02;99811.34;4929038;29;20198;-76
2022/06/08 05:10:38;;;;;;;2.33;1.60;;;;;;;22.79;85.94;99822.91;4929242;29;20223;-76
2022/06/08 05:13:06;;;;;;;3.37;1.80;;;;;;;23.71;82.63;99815.69;4912453;29;20753;-76
2022/06/08 05:15:35;;;;;;;2.27;1.40;;;;;;;24.80;80.21;99813.94;4928251;29;20216;-76
2022/06/08 05:18:02;;;;;;;1.67;1.53;;;;;;;25.81;77.67;99814.03;4913427;29;20195;-76
2022/06/08 05:20:28;;;;;;;1.50;1.40;;;;;;;26.71;75.44;99813.84;4929223;29;20207;-76
2022/06/08 05:22:54;;;;;;;1.27;1.10;;;;;;;27.57;73.60;99816.28;4928418;29;20775;-77
2022/06/08 05:25:28;;;;;;;2.10;1.47;;;;;;;27.45;73.27;99809.34;4928039;29;20286;-76
2022/06/08 05:27:53;;;;;;;2.23;1.10;;;;;;;27.66;72.24;99806.63;4928097;29;20191;-77
2022/06/08 05:30:19;;;;;;;1.90;1.20;;;;;;;27.94;71.81;99801.50;4928711;29;20706;-77
2022/06/08 05:32:45;;;;;;;1.60;0.90;;;;;;;28.40;70.80;99793.81;4914098;29;20203;-77
2022/06/08 05:35:11;;;;;;;1.20;1.07;;;;;;;28.89;69.04;99799.94;4928999;29;20607;-76
2022/06/08 05:37:36;;;;;;;1.30;1.00;;;;;;;29.00;68.22;99787.41;4928805;29;20255;-76
2022/06/08 05:40:04;;;;;;;2.70;1.37;;;;;;;29.26;67.32;99790.25;4929246;29;20219;-76
2022/06/08 05:42:29;;;;;;;2.30;1.17;;;;;;;29.97;66.70;99785.25;4912632;29;20686;-76
2022/06/08 05:44:57;;;;;;;1.53;1.00;;;;;;;30.36;65.49;99784.09;4928282;29;20188;-77
2022/06/08 05:47:22;;;;;;;3.87;1.17;;;;;;;30.73;64.85;99784.88;4930179;29;20195;-76
2022/06/08 05:49:48;;;;;;;1.67;1.23;;;;;;;31.17;64.07;99790.97;4907765;29;20342;-76
2022/06/08 05:52:13;;;;;;;1.93;0.90;;;;;;;31.71;63.03;99781.81;4928349;29;20192;-76
2022/06/08 05:54:39;;;;;;;2.73;1.30;;;;;;;32.11;61.54;99779.38;4911721;29;20226;-76
2022/06/08 05:57:05;;;;;;;1.83;0.83;;;;;;;32.43;61.11;99777.72;4929195;29;20194;-76
2022/06/08 05:59:31;;;;;;;3.60;1.00;;;;;;;32.77;60.65;99779.31;4927426;29;20207;-76
2022/06/08 06:01:56;;;;;;;1.83;0.90;;;;;;;33.10;59.83;99773.88;4928103;29;20208;-77
2022/06/08 06:04:21;;;;;;;1.15;1.00;;;;;;;33.39;58.48;99766.25;4928511;29;20179;-76
2022/06/08 06:06:47;;;;;;;2.22;0.93;;;;;;;33.56;58.32;99775.88;4928196;29;20691;-77
2022/06/08 06:09:16;;;;;;;2.95;1.10;;;;;;;33.86;58.01;99767.97;4926028;29;20578;-76
2022/06/08 06:11:41;;;;;;;1.30;1.00;;;;;;;33.97;57.07;99769.41;4909714;29;20210;-76
2022/06/08 06:14:08;;;;;;;1.55;1.05;;;;;;;34.06;57.52;99761.31;4910000;29;20211;-77
2022/06/08 06:16:36;;;;;;;3.10;1.15;;;;;;;34.01;57.61;99765.34;4926383;29;20195;-77
2022/06/08 06:19:01;;;;;;;1.50;1.20;;;;;;;34.16;57.72;99760.03;4926258;29;20694;-77
2022/06/08 06:21:27;;;;;;;2.38;1.17;;;;;;;34.35;57.68;99756.00;4910211;29;20242;-77
2022/06/08 06:23:54;;;;;;;2.20;1.52;;;;;;;34.16;56.89;99748.44;4927349;29;20187;-77
2022/06/08 06:26:20;;;;;;;3.67;1.30;;;;;;;34.07;57.31;99749.53;4925811;29;20618;-77
2022/06/08 06:28:46;;;;;;;3.00;1.27;;;;;;;34.32;57.18;99745.63;4910642;29;20191;-77
2022/06/08 06:31:16;;;;;;;3.17;1.50;;;;;;;34.50;55.10;99747.16;4928013;29;20211;-77
2022/06/08 06:33:42;;;;;;;2.55;1.05;;;;;;;34.37;55.58;99750.44;4927998;29;20708;-77
2022/06/08 06:36:07;;;;;;;1.98;1.00;;;;;;;34.44;55.09;99743.34;4929058;29;20272;-78
2022/06/08 06:38:33;;;;;;;1.63;1.00;;;;;;;34.53;54.67;99738.75;4913056;29;20294;-77
2022/06/08 06:40:59;;;;;;;2.13;0.95;;;;;;;34.76;54.66;99740.50;4929780;29;20218;-76
2022/06/08 06:43:25;;;;;;;1.33;1.00;;;;;;;34.90;54.53;99731.56;4926953;29;20191;-77
2022/06/08 06:45:50;;;;;;;1.30;0.90;;;;;;;34.98;54.43;99727.16;4930973;29;20193;-76
2022/06/08 06:48:16;;;;;;;1.30;1.00;;;;;;;35.09;54.17;99727.50;4930789;29;20549;-77
2022/06/08 06:50:41;;;;;;;2.63;1.10;;;;;;;35.14;53.57;99718.88;4931180;29;20302;-77
2022/06/08 06:53:06;;;;;;;2.25;1.17;;;;;;;34.34;53.12;99719.41;4931319;29;20215;-77
2022/06/08 06:55:32;;;;;;;1.88;1.10;;;;;;;33.46;54.31;99718.91;4914838;29;20199;-76
2022/06/08 06:57:57;;;;;;;1.23;1.00;;;;;;;32.79;55.12;99712.16;4932315;29;20730;-77
2022/06/08 07:00:24;;;;;;;2.13;1.05;;;;;;;32.52;56.03;99709.72;4931963;29;20811;-77
2022/06/08 07:02:50;;;;;;;1.30;0.85;;;;;;;32.46;56.11;99704.22;4913689;29;20191;-77
2022/06/08 07:05:22;;;;;;;5.28;1.02;;;;;;;32.15;56.23;99705.72;4913582;29;20187;-77
2022/06/08 07:07:48;;;;;;;1.67;0.80;;;;;;;32.56;56.11;99696.00;4929052;29;20187;-77
2022/06/08 07:10:15;;;;;;;1.48;0.95;;;;;;;33.17;55.07;99698.94;4913138;29;20725;-77
2022/06/08 07:12:41;;;;;;;3.42;1.17;;;;;;;33.37;54.43;99694.00;4931535;29;20195;-76
2022/06/08 07:15:07;;;;;;;1.20;0.98;;;;;;;33.42;54.22;99698.84;4930153;29;20270;-76
2022/06/08 07:17:32;;;;;;;1.00;0.70;;;;;;;33.08;54.73;99698.16;4931032;29;20277;-77
2022/06/08 07:19:58;;;;;;;2.13;0.90;;;;;;;33.09;54.71;99693.66;4931693;29;20218;-77
2022/06/08 07:22:23;;;;;;;1.33;0.80;;;;;;;33.21;54.75;99694.06;4931831;29;20596;-78
2022/06/08 07:24:49;;;;;;;1.58;0.93;;;;;;;33.39;54.57;99691.16;4931871;29;20222;-77
2022/06/08 07:27:14;;;;;;;2.50;1.02;;;;;;;33.55;54.40;99690.19;4935093;29;20185;-76
2022/06/08 07:29:40;;;;;;;2.40;0.90;;;;;;;33.72;54.10;99693.59;4934654;29;20194;-76
2022/06/08 07:32:05;;;;;;;2.80;0.90;;;;;;;33.86;54.20;99684.78;4930593;29;20242;-76
2022/06/08 07:34:31;;;;;;;2.30;0.95;;;;;;;33.92;53.72;99680.56;4931736;29;20554;-77
2022/06/08 07:36:57;;;;;;;1.58;0.88;;;;;;;33.76;53.56;99680.66;4929468;29;20199;-76
2022/06/08 07:39:24;;;;;;;2.42;0.98;;;;;;;33.16;54.58;99685.72;4930188;29;20290;-76
2022/06/08 07:41:49;;;;;;;3.05;1.00;;;;;;;32.65;55.35;99684.25;4930997;29;20218;-76
2022/06/08 07:44:17;;;;;;;1.60;0.80;;;;;;;32.31;55.84;99683.50;4914360;29;20187;-76
2022/06/08 07:46:44;;;;;;;1.77;1.00;;;;;;;32.00;56.66;99680.66;4913583;29;20239;-77
2022/06/08 07:51:59;;;;;;;2.92;1.42;;;;;;;31.69;57.02;99668.78;4931183;29;20572;-76
2022/06/08 07:54:28;;;;;;;1.83;1.15;;;;;;;31.70;57.05;99666.97;4929815;29;20839;-76
2022/06/08 07:56:54;;;;;;;1.60;1.02;;;;;;;31.81;57.31;99672.00;4916807;29;20828;-76
2022/06/08 07:59:22;;;;;;;2.15;1.00;;;;;;;31.89;56.85;99663.13;4929277;29;20242;-75
2022/06/08 08:01:48;;;;;;;1.77;1.05;;;;;;;31.74;57.46;99662.94;4932391;29;20215;-75
2022/06/08 08:04:14;;;;;;;1.98;0.95;;;;;;;31.77;57.33;99667.97;4912131;29;20331;-75
2022/06/08 08:06:39;;;;;;;2.73;1.13;;;;;;;31.35;57.39;99664.38;4928833;29;20230;-77
2022/06/08 08:09:04;;;;;;;2.63;1.20;;;;;;;30.93;58.15;99649.22;4913622;29;20195;-77
2022/06/08 08:11:30;;;;;;;1.70;0.90;;;;;;;30.78;58.52;99652.53;4932005;29;20347;-77
2022/06/08 08:13:56;;;;;;;3.37;1.10;;;;;;;30.63;58.89;99654.94;4912832;29;20290;-76
2022/06/08 08:16:21;;;;;;;1.40;1.00;;;;;;;30.38;59.17;99646.78;4913562;29;20225;-77
2022/06/08 08:18:48;;;;;;;1.97;1.13;;;;;;;30.19;59.73;99645.19;4930351;29;20231;-75
2022/06/08 08:21:13;;;;;;;3.30;1.47;;;;;;;30.02;59.23;99643.41;4913560;29;20278;-75
2022/06/08 08:23:39;;;;;;;2.50;1.30;;;;;;;29.87;59.58;99637.78;4913209;29;20195;-76
2022/06/08 08:26:04;;;;;;;2.80;1.13;;;;;;;29.90;59.78;99632.97;4929574;29;20194;-76
2022/06/08 08:28:29;;;;;;;1.83;1.20;;;;;;;29.98;59.92;99634.03;4929693;29;20330;-75
2022/06/08 08:30:55;;;;;;;2.27;1.20;;;;;;;30.02;59.20;99628.25;4914783;29;20325;-75
2022/06/08 08:33:20;;;;;;;3.67;1.20;;;;;;;29.97;59.26;99622.53;4927799;29;20211;-75
2022/06/08 08:35:45;;;;;;;2.90;1.30;;;;;;;30.01;59.38;99628.38;4931092;29;20266;-76
2022/06/08 08:38:11;;;;;;;1.63;1.10;;;;;;;30.06;59.09;99620.75;4912915;29;20298;-76
2022/06/08 08:42:20;;;;;;;1.50;1.20;;;;;;;30.53;59.33;99619.50;4928762;29;20215;-75
2022/06/08 08:43:52;;;;;;;4.37;1.40;;;;;;;30.80;58.18;99601.59;4924507;29;20287;-77
2022/06/08 08:46:39;;;;;;;3.10;1.30;;;;;;;30.72;58.55;99599.75;4929930;29;20645;-76
2022/06/08 08:49:19;;;;;;;6.77;1.23;;;;;;;30.34;57.59;99597.38;4928962;29;20346;-75
2022/06/08 08:51:53;;;;;;;2.10;1.47;;;;;;;29.94;59.16;99582.78;4927526;29;20593;-76
2022/06/08 08:54:36;;;;;;;2.30;1.13;;;;;;;29.61;60.04;99582.56;4928996;29;20829;-76
2022/06/08 08:57:10;;;;;;;2.10;1.13;;;;;;;29.28;60.80;99583.09;4926845;29;20215;-77
2022/06/08 08:59:36;;;;;;;1.53;1.10;;;;;;;29.08;59.79;99584.22;4927949;29;20294;-77
2022/06/08 09:02:02;;;;;;;2.93;1.27;;;;;;;28.78;59.89;99578.25;4928326;29;20215;-76
2022/06/08 09:04:37;;;;;;;1.57;1.20;;;;;;;28.56;60.65;99572.34;4928714;29;20218;-75
2022/06/08 09:07:17;;;;;;;3.50;1.40;;;;;;;28.23;61.47;99570.09;4927714;29;20215;-76
2022/06/08 09:09:43;;;;;;;2.27;1.00;;;;;;;28.02;62.21;99575.59;4929044;29;20234;-76
2022/06/08 09:12:14;;;;;;;1.93;0.93;;;;;;;27.90;62.98;99580.25;4928495;29;20219;-76
2022/06/08 09:14:51;;;;;;;1.60;0.90;;;;;;;27.82;63.96;99572.13;4926587;29;20215;-76
2022/06/08 09:17:18;;;;;;;2.03;1.20;;;;;;;27.74;64.09;99583.47;4908930;29;20198;-78
2022/06/08 09:19:50;;;;;;;1.50;1.27;;;;;;;27.79;63.41;99567.94;4909192;29;20670;-76
2022/06/08 09:22:22;;;;;;;2.10;1.00;;;;;;;27.94;62.07;99565.66;4928928;29;20182;-76
2022/06/08 09:24:57;;;;;;;2.37;1.10;;;;;;;28.07;62.30;99554.72;4927491;29;20184;-76
2022/06/08 09:27:36;;;;;;;2.30;1.10;;;;;;;28.27;62.48;99554.69;4912794;29;20195;-76
2022/06/08 09:30:11;;;;;;;1.97;1.20;;;;;;;28.39;62.70;99544.66;5113134;27;20577;-78
2022/06/08 09:33:18;;;;;;;1.63;1.00;;;;;;;28.48;61.96;99550.94;5098363;28;20185;-77
2022/06/08 09:35:56;;;;;;;1.40;1.03;;;;;;;28.45;62.54;99547.56;5092894;28;20245;-77
2022/06/08 09:38:24;;;;;;;2.10;1.03;;;;;;;28.38;63.00;99546.50;5092659;28;20535;-76
2022/06/08 09:41:19;;;;;;;2.20;1.10;;;;;;;28.44;63.21;99537.09;5094312;28;20204;-76
2022/06/08 09:43:57;;;;;;;1.53;1.10;;;;;;;28.45;62.96;99531.59;5093022;28;20290;-75
2022/06/08 09:52:37;;;;;;;1.93;1.10;;;;;;;28.44;62.90;99532.59;5093147;28;20192;-77
2022/06/08 09:55:20;;;;;;;3.27;1.13;;;;;;;28.28;62.60;99532.41;5085809;28;20189;-76
2022/06/08 09:58:09;;;;;;;1.60;0.93;;;;;;;28.23;62.90;99530.19;5086145;28;20191;-76
2022/06/08 10:01:01;;;;;;;1.70;1.03;;;;;;;28.22;63.30;99525.00;5085293;28;20212;-76
2022/06/08 10:03:34;;;;;;;2.57;1.27;;;;;;;28.21;63.24;99521.50;5084105;28;20216;-76
2022/06/08 10:06:05;;;;;;;1.10;0.90;;;;;;;28.11;62.80;99518.06;5091236;28;20704;-76
2022/06/08 10:08:59;;;;;;;1.47;1.00;;;;;;;28.01;63.06;99512.75;5094454;28;20595;-77
2022/06/08 10:12:08;;;;;;;1.87;1.10;;;;;;;27.97;63.29;99508.72;5091992;28;20263;-77
2022/06/08 10:15:21;;;;;;;1.80;1.10;;;;;;;28.01;62.90;99504.75;5080857;28;20192;-78
2022/06/08 10:17:53;;;;;;;1.23;0.90;;;;;;;28.06;62.17;99507.84;5069156;28;20562;-78
2022/06/08 10:20:24;;;;;;;1.70;1.10;;;;;;;28.02;62.32;99501.13;5088675;28;20254;-77
2022/06/08 10:22:55;;;;;;;1.90;0.97;;;;;;;28.01;62.48;99503.94;5087161;28;20187;-76
2022/06/08 10:25:52;;;;;;;2.03;1.10;;;;;;;28.14;63.40;99502.63;5092448;28;20215;-77
2022/06/08 10:28:29;;;;;;;2.47;1.10;;;;;;;28.20;62.47;99495.91;5095955;28;20240;-77
2022/06/08 10:31:04;;;;;;;1.90;1.30;;;;;;;28.26;61.55;99492.66;5090596;28;20208;-77
2022/06/08 10:33:38;;;;;;;3.87;1.73;;;;;;;28.29;61.85;99495.00;5079525;28;20880;-75
2022/06/08 10:36:04;;;;;;;2.57;1.30;;;;;;;28.43;59.41;99498.16;5094065;28;20189;-76
2022/06/08 10:38:41;;;;;;;1.90;1.00;;;;;;;28.36;59.50;99491.78;5081533;28;20188;-78
2022/06/08 10:43:55;;;;;;;1.93;0.90;;;;;;;28.10;58.47;99484.47;5077640;28;20692;-75
2022/06/08 10:46:27;;;;;;;1.57;0.97;;;;;;;28.13;57.90;99485.00;5075592;28;20193;-75
2022/06/08 10:48:52;;;;;;;2.83;1.00;;;;;;;28.19;58.21;99485.41;5078414;28;20679;-77
2022/06/08 10:51:18;;;;;;;3.37;1.30;;;;;;;28.27;57.64;99470.38;5076405;28;20220;-76
2022/06/08 10:56:46;;;;;;;2.37;1.00;;;;;;;28.19;58.30;99467.63;5075936;28;20199;-74
2022/06/08 10:59:22;;;;;;;2.23;1.10;;;;;;;28.04;58.13;99466.41;5075509;28;20230;-77
2022/06/08 11:01:50;;;;;;;1.93;1.10;;;;;;;27.91;59.02;99456.94;5076803;28;20235;-76
2022/06/08 11:05:02;;;;;;;2.77;0.97;;;;;;;27.92;59.34;99453.28;5071445;28;20189;-75
2022/06/08 11:07:59;;;;;;;2.03;1.17;;;;;;;28.31;58.59;99457.59;5049963;28;20236;-76
2022/06/08 11:10:55;;;;;;;2.67;0.90;;;;;;;28.82;56.41;99450.00;5068501;28;20227;-77
2022/06/08 11:13:26;;;;;;;1.57;0.83;;;;;;;29.17;55.91;99437.63;5071368;28;20179;-76
2022/06/08 11:16:22;;;;;;;0.90;0.80;;;;;;;29.38;54.27;99433.81;5071538;28;20194;-76
2022/06/08 11:19:13;;;;;;;3.67;1.00;;;;;;;29.48;53.61;99433.72;5073811;28;20186;-77
2022/06/08 11:21:45;;;;;;;1.50;0.90;;;;;;;29.50;54.16;99437.03;5078441;28;20237;-76
2022/06/08 11:24:38;;;;;;;1.10;0.70;;;;;;;29.48;54.23;99429.22;5075916;28;20238;-76
2022/06/08 11:27:09;;;;;;;2.07;0.77;;;;;;;29.39;53.64;99438.16;5074170;28;20192;-76
2022/06/08 11:29:35;;;;;;;1.70;0.93;;;;;;;29.39;53.59;99429.31;5073748;28;20254;-77
2022/06/08 11:32:00;;;;;;;2.07;0.93;;;;;;;29.40;53.77;99436.31;5075936;28;20646;-77
2022/06/08 11:35:03;;;;;;;1.60;1.00;;;;;;;29.54;54.29;99432.25;5071179;28;20182;-76
2022/06/08 11:37:48;;;;;;;1.57;0.90;;;;;;;29.71;54.59;99426.00;5061506;28;20182;-78
2022/06/08 11:40:27;;;;;;;1.37;0.93;;;;;;;29.85;53.12;99434.41;5064166;28;20297;-77
2022/06/08 11:43:00;;;;;;;1.93;1.00;;;;;;;29.86;52.92;99426.22;5067942;28;20190;-76
2022/06/08 11:45:34;;;;;;;1.97;1.00;;;;;;;29.93;52.83;99421.09;5064854;28;20198;-77
2022/06/08 11:48:18;;;;;;;1.67;0.97;;;;;;;29.95;52.00;99419.13;5062878;28;20189;-76
2022/06/08 11:51:00;;;;;;;3.33;1.10;;;;;;;29.92;50.32;99420.25;5070620;28;20216;-78
2022/06/08 11:53:26;;;;;;;2.07;1.10;;;;;;;29.72;50.38;99410.84;5072512;28;20193;-76
2022/06/08 11:55:58;;;;;;;1.80;0.90;;;;;;;29.61;51.41;99410.13;5074667;28;20550;-77
2022/06/08 11:58:28;;;;;;;2.27;0.80;;;;;;;29.58;50.95;99413.09;5075125;28;20215;-76
2022/06/08 12:01:06;;;;;;;1.27;0.90;;;;;;;29.46;51.42;99404.53;5072507;28;20300;-76
2022/06/08 12:03:44;;;;;;;1.33;0.70;;;;;;;29.48;51.28;99413.22;5081885;28;20211;-76
2022/06/08 12:06:13;;;;;;;2.57;1.07;;;;;;;29.52;51.80;99403.06;5078684;28;20200;-75